createdAt,value
2019-03-29T00:01:53.349Z,46.83
2019-03-29T00:04:22.108Z,45.48
2019-03-29T00:06:50.932Z,52.65
2019-03-29T00:09:19.696Z,61.75
2019-03-29T00:11:48.450Z,55.05
2019-03-29T00:14:17.252Z,58.23
2019-03-29T00:16:48.589Z,54.05
2019-03-29T00:19:17.376Z,55.78
2019-03-29T00:21:46.169Z,58.05
2019-03-29T00:24:15.100Z,64.95
2019-03-29T00:26:44.071Z,54.08
2019-03-29T00:29:12.872Z,45.70
2019-03-29T00:31:41.629Z,48.90
2019-03-29T00:34:10.389Z,51.58
2019-03-29T00:36:39.269Z,48.42
2019-03-29T00:39:08.256Z,63.52
2019-03-29T00:41:37.014Z,54.55
2019-03-29T00:44:05.816Z,69.10
2019-03-29T00:46:35.490Z,66.87
2019-03-29T00:49:04.269Z,62.43
2019-03-29T00:51:33.070Z,69.67
2019-03-29T00:54:02.056Z,71.97
2019-03-29T00:56:31.195Z,72.60
2019-03-29T00:58:59.988Z,64.05
2019-03-29T01:01:30.848Z,68.28
2019-03-29T01:03:59.592Z,60.70
2019-03-29T01:06:28.418Z,78.02
2019-03-29T01:08:57.169Z,67.58
2019-03-29T01:11:25.949Z,81.87
2019-03-29T01:13:54.754Z,66.10
2019-03-29T01:16:23.510Z,57.80
2019-03-29T01:18:52.249Z,49.33
2019-03-29T01:21:21.090Z,66.62
2019-03-29T01:23:50.016Z,60.95
2019-03-29T01:26:19.089Z,80.22
2019-03-29T01:28:47.896Z,78.05
2019-03-29T01:31:16.648Z,91.70
2019-03-29T01:33:45.415Z,97.80
2019-03-29T01:36:14.229Z,95.62
2019-03-29T01:38:42.970Z,53.83
2019-03-29T01:41:11.790Z,58.80
2019-03-29T01:43:40.609Z,48.78
2019-03-29T01:46:09.369Z,62.58
2019-03-29T01:48:38.110Z,61.68
2019-03-29T01:51:06.936Z,69.90
2019-03-29T01:53:35.689Z,72.08
2019-03-29T01:56:04.434Z,84.35
2019-03-29T01:58:33.230Z,84.32
2019-03-29T02:01:02.280Z,77.20
2019-03-29T02:03:31.929Z,66.15
2019-03-29T02:06:00.751Z,82.80
2019-03-29T02:08:35.569Z,83.05
2019-03-29T02:10:59.970Z,99.90
2019-03-29T02:13:28.809Z,86.42
2019-03-29T02:15:57.549Z,88.42
2019-03-29T02:18:26.330Z,86.60
2019-03-29T02:20:55.151Z,91.05
2019-03-29T02:23:23.912Z,89.05
2019-03-29T02:25:52.791Z,72.05
2019-03-29T02:28:21.591Z,93.92
2019-03-29T02:30:50.338Z,110.72
2019-03-29T02:33:20.495Z,105.32
2019-03-29T02:35:49.602Z,102.40
2019-03-29T02:38:18.372Z,101.90
2019-03-29T02:40:47.149Z,108.00
2019-03-29T02:43:15.972Z,92.15
2019-03-29T02:45:44.729Z,78.60
2019-03-29T02:48:13.650Z,98.45
2019-03-29T02:50:42.472Z,94.85
2019-03-29T02:53:11.251Z,113.52
2019-03-29T02:55:40.031Z,104.05
2019-03-29T02:58:08.871Z,108.32
2019-03-29T03:00:37.610Z,111.52
2019-03-29T03:03:06.391Z,103.58
2019-03-29T03:05:35.241Z,101.72
2019-03-29T03:08:03.975Z,79.70
2019-03-29T03:10:32.751Z,86.55
2019-03-29T03:13:01.590Z,98.80
2019-03-29T03:15:30.661Z,99.77
2019-03-29T03:17:59.441Z,92.40
2019-03-29T03:20:28.316Z,80.28
2019-03-29T03:22:57.051Z,99.67
2019-03-29T03:25:25.818Z,82.75
2019-03-29T03:27:54.610Z,85.70
2019-03-29T03:30:23.371Z,84.95
2019-03-29T03:32:52.145Z,78.50
2019-03-29T03:35:20.953Z,75.42
2019-03-29T03:37:49.728Z,76.70
2019-03-29T03:40:18.688Z,91.25
2019-03-29T03:42:47.495Z,95.47
2019-03-29T03:45:16.231Z,90.20
2019-03-29T03:47:44.969Z,90.40
2019-03-29T03:50:25.556Z,97.08
2019-03-29T03:52:54.310Z,100.58
2019-03-29T03:55:23.071Z,81.35
2019-03-29T03:57:52.606Z,91.63
2019-03-29T04:00:24.299Z,84.70
2019-03-29T04:02:53.048Z,93.35
2019-03-29T04:05:21.848Z,85.55
2019-03-29T04:07:50.605Z,101.27
2019-03-29T04:10:19.369Z,92.05
2019-03-29T04:12:48.167Z,91.65
2019-03-29T04:15:16.930Z,84.83
2019-03-29T04:17:45.670Z,84.35
2019-03-29T04:20:14.566Z,83.78
2019-03-29T04:22:43.359Z,78.72
2019-03-29T04:25:12.106Z,81.37
2019-03-29T04:27:40.907Z,79.25
2019-03-29T04:30:09.868Z,86.28
2019-03-29T04:32:38.644Z,81.85
2019-03-29T04:35:07.530Z,86.65
2019-03-29T04:37:36.324Z,106.87
2019-03-29T04:40:08.352Z,83.37
2019-03-29T04:42:36.690Z,91.53
2019-03-29T04:45:06.470Z,80.05
2019-03-29T04:47:35.227Z,82.55
2019-03-29T04:50:05.627Z,79.47
2019-03-29T04:52:35.148Z,79.47
2019-03-29T04:55:04.907Z,83.62
2019-03-29T04:57:33.728Z,86.20
2019-03-29T05:00:02.467Z,82.80
2019-03-29T05:02:31.234Z,89.75
2019-03-29T05:05:00.029Z,73.55
2019-03-29T05:07:28.815Z,77.05
2019-03-29T05:09:57.588Z,86.85
2019-03-29T05:12:26.406Z,79.58
2019-03-29T05:14:55.128Z,72.35
2019-03-29T05:17:23.887Z,76.02
2019-03-29T05:19:52.706Z,86.82
2019-03-29T05:22:21.446Z,89.22
2019-03-29T05:24:50.210Z,85.90
2019-03-29T05:27:19.007Z,80.22
2019-03-29T05:29:47.787Z,84.90
2019-03-29T05:32:16.548Z,77.65
2019-03-29T05:34:45.447Z,73.83
2019-03-29T05:37:14.207Z,85.77
2019-03-29T05:39:42.947Z,79.95
2019-03-29T05:42:11.754Z,74.42
2019-03-29T05:44:40.935Z,79.22
2019-03-29T05:47:09.810Z,86.87
2019-03-29T05:49:38.587Z,79.58
2019-03-29T05:52:07.349Z,88.10
2019-03-29T05:54:36.087Z,77.25
2019-03-29T05:57:04.886Z,81.22
2019-03-29T05:59:33.629Z,79.35
2019-03-29T06:02:02.390Z,82.25
2019-03-29T06:04:31.147Z,82.60
2019-03-29T06:06:59.888Z,86.17
2019-03-29T06:09:28.710Z,80.35
2019-03-29T06:11:57.448Z,90.85
2019-03-29T06:14:26.247Z,100.40
2019-03-29T06:16:55.027Z,94.70
2019-03-29T06:19:23.768Z,89.25
2019-03-29T06:21:52.569Z,83.80
2019-03-29T06:24:21.326Z,77.40
2019-03-29T06:26:50.075Z,79.00
2019-03-29T06:29:18.847Z,83.03
2019-03-29T06:31:47.587Z,81.67
2019-03-29T06:34:16.387Z,77.90
2019-03-29T06:36:45.746Z,82.75
2019-03-29T06:39:14.947Z,84.62
2019-03-29T06:41:43.726Z,76.00
2019-03-29T06:44:12.467Z,74.25
2019-03-29T06:46:41.289Z,66.57
2019-03-29T06:49:10.126Z,63.25
2019-03-29T06:51:38.866Z,72.15
2019-03-29T06:54:07.671Z,69.92
2019-03-29T06:56:36.386Z,61.58
2019-03-29T06:59:05.186Z,60.20
2019-03-29T07:01:33.950Z,66.72
2019-03-29T07:04:02.687Z,75.22
2019-03-29T07:06:31.486Z,57.60
2019-03-29T07:09:00.271Z,53.45
2019-03-29T07:11:29.058Z,54.33
2019-03-29T07:13:58.257Z,46.30
2019-03-29T07:16:27.147Z,51.10
2019-03-29T07:18:55.930Z,48.98
2019-03-29T07:21:24.690Z,50.73
2019-03-29T07:23:53.486Z,47.10
2019-03-29T07:26:22.266Z,52.00
2019-03-29T07:28:51.048Z,46.08
2019-03-29T07:31:19.809Z,44.83
2019-03-29T07:33:48.566Z,48.95
2019-03-29T07:36:17.366Z,46.53
2019-03-29T07:38:46.109Z,50.75
2019-03-29T07:41:14.887Z,46.92
2019-03-29T07:43:43.646Z,48.85
2019-03-29T07:46:12.406Z,48.08
2019-03-29T07:48:41.207Z,49.18
2019-03-29T07:51:09.967Z,46.63
2019-03-29T07:53:38.726Z,53.52
2019-03-29T07:56:07.554Z,51.00
2019-03-29T07:58:36.308Z,50.95
2019-03-29T08:01:05.118Z,52.90
2019-03-29T08:03:33.881Z,48.78
2019-03-29T08:06:02.670Z,50.33
2019-03-29T08:08:33.357Z,51.85
2019-03-29T08:11:01.906Z,50.73
2019-03-29T08:13:30.667Z,44.03
2019-03-29T08:15:59.426Z,44.10
2019-03-29T08:18:28.247Z,45.17
2019-03-29T08:20:57.007Z,45.52
2019-03-29T08:23:28.614Z,51.68
2019-03-29T08:25:56.348Z,75.40
2019-03-29T08:28:25.126Z,56.77
2019-03-29T08:30:53.886Z,56.55
2019-03-29T08:33:22.742Z,51.77
2019-03-29T08:35:51.506Z,49.85
2019-03-29T08:38:20.266Z,47.05
2019-03-29T08:40:49.087Z,41.70
2019-03-29T08:43:17.846Z,42.70
2019-03-29T08:45:46.609Z,45.98
2019-03-29T08:48:15.407Z,44.88
2019-03-29T08:50:44.168Z,41.70
2019-03-29T08:53:12.906Z,34.95
2019-03-29T08:55:46.142Z,38.02
2019-03-29T08:58:12.427Z,32.73
2019-03-29T09:00:41.207Z,31.10
2019-03-29T09:03:10.048Z,33.08
2019-03-29T09:05:39.374Z,37.33
2019-03-29T09:08:08.366Z,31.80
2019-03-29T09:10:37.187Z,27.27
2019-03-29T09:13:05.966Z,31.02
2019-03-29T09:15:34.746Z,24.63
2019-03-29T09:18:03.691Z,26.60
2019-03-29T09:20:34.546Z,40.33
2019-03-29T09:23:03.108Z,19.85
2019-03-29T09:25:32.827Z,13.18
2019-03-29T09:28:01.651Z,23.45
2019-03-29T09:30:30.487Z,24.77
2019-03-29T09:32:59.306Z,22.82
2019-03-29T09:35:28.066Z,12.55
2019-03-29T09:37:56.922Z,16.55
2019-03-29T09:40:25.809Z,22.58
2019-03-29T09:43:06.723Z,21.62
2019-03-29T09:45:25.026Z,20.88
2019-03-29T09:47:55.893Z,19.45
2019-03-29T09:50:24.328Z,16.50
2019-03-29T09:52:53.106Z,21.07
2019-03-29T09:55:21.930Z,21.62
2019-03-29T09:57:50.730Z,16.82
2019-03-29T10:00:23.300Z,19.67
2019-03-29T10:02:50.760Z,12.73
2019-03-29T10:05:20.227Z,10.53
2019-03-29T10:07:49.387Z,11.45
2019-03-29T10:10:18.231Z,13.20
2019-03-29T10:12:46.990Z,17.62
2019-03-29T10:15:15.752Z,16.93
2019-03-29T10:17:44.547Z,14.35
2019-03-29T10:20:13.409Z,12.35
2019-03-29T10:22:42.191Z,15.93
2019-03-29T10:25:19.098Z,16.77
2019-03-29T10:27:41.488Z,18.10
2019-03-29T10:30:10.769Z,16.32
2019-03-29T10:32:39.588Z,20.52
2019-03-29T10:35:09.047Z,20.20
2019-03-29T10:37:37.808Z,21.10
2019-03-29T10:40:07.688Z,25.48
2019-03-29T10:42:39.763Z,32.78
2019-03-29T10:45:07.031Z,31.65
2019-03-29T10:47:43.865Z,24.75
2019-03-29T10:50:08.047Z,25.17
2019-03-29T10:52:36.826Z,28.40
2019-03-29T10:55:06.607Z,26.97
2019-03-29T10:57:35.389Z,25.20
2019-03-29T11:00:11.908Z,27.10
2019-03-29T11:02:40.686Z,27.75
2019-03-29T11:05:09.647Z,29.92
2019-03-29T11:07:38.476Z,28.90
2019-03-29T11:10:07.450Z,29.57
2019-03-29T11:12:36.246Z,28.95
2019-03-29T11:15:06.979Z,32.45
2019-03-29T11:17:35.946Z,34.63
2019-03-29T11:20:05.066Z,32.23
2019-03-29T11:22:33.832Z,33.23
2019-03-29T11:25:02.587Z,34.85
2019-03-29T11:27:31.411Z,32.42
2019-03-29T11:30:00.358Z,35.43
2019-03-29T11:32:29.180Z,37.42
2019-03-29T11:34:57.949Z,34.20
2019-03-29T11:37:26.728Z,34.20
2019-03-29T11:39:55.514Z,37.25
2019-03-29T11:42:24.267Z,33.38
2019-03-29T11:44:53.106Z,37.70
2019-03-29T11:47:21.867Z,35.90
2019-03-29T11:49:52.920Z,38.78
2019-03-29T11:52:21.128Z,34.38
2019-03-29T11:54:49.907Z,37.58
2019-03-29T11:57:18.706Z,33.75
2019-03-29T11:59:47.469Z,35.45
2019-03-29T12:02:30.219Z,33.18
2019-03-29T12:04:46.722Z,29.75
2019-03-29T12:07:17.509Z,32.73
2019-03-29T12:09:46.347Z,29.87
2019-03-29T12:12:15.226Z,34.33
2019-03-29T12:14:44.067Z,31.87
2019-03-29T12:17:12.858Z,31.57
2019-03-29T12:19:41.606Z,32.55
2019-03-29T12:22:10.426Z,32.95
2019-03-29T12:24:40.166Z,26.80
2019-03-29T12:27:08.987Z,28.92
2019-03-29T12:29:37.754Z,33.30
2019-03-29T12:32:06.567Z,31.37
2019-03-29T12:34:35.388Z,28.80
2019-03-29T12:37:04.227Z,30.25
2019-03-29T12:39:33.026Z,33.33
2019-03-29T12:42:01.787Z,37.00
2019-03-29T12:44:30.587Z,34.48
2019-03-29T12:46:59.367Z,42.03
2019-03-29T12:49:28.107Z,56.08
2019-03-29T12:51:56.947Z,60.55
2019-03-29T12:54:25.733Z,44.65
2019-03-29T12:56:54.486Z,44.50
2019-03-29T12:59:23.286Z,39.48
2019-03-29T13:01:52.047Z,44.80
2019-03-29T13:04:20.848Z,46.20
2019-03-29T13:06:49.595Z,40.28
2019-03-29T13:09:18.474Z,44.60
2019-03-29T13:11:47.266Z,39.73
2019-03-29T13:14:16.086Z,45.55
2019-03-29T13:16:44.986Z,41.80
2019-03-29T13:19:13.749Z,42.43
2019-03-29T13:21:42.497Z,42.33
2019-03-29T13:24:11.468Z,47.27
2019-03-29T13:26:40.248Z,41.63
2019-03-29T13:29:09.067Z,43.10
2019-03-29T13:31:37.829Z,41.95
2019-03-29T13:34:06.607Z,41.00
2019-03-29T13:36:35.408Z,38.73
2019-03-29T13:39:05.628Z,44.63
2019-03-29T13:41:34.467Z,40.17
2019-03-29T13:44:03.291Z,43.17
2019-03-29T13:46:32.048Z,37.75
2019-03-29T13:49:00.846Z,40.65
2019-03-29T13:51:29.631Z,39.58
2019-03-29T13:53:58.429Z,37.58
2019-03-29T13:56:27.187Z,38.20
2019-03-29T13:58:55.968Z,34.92
2019-03-29T14:01:24.768Z,35.88
2019-03-29T14:03:53.571Z,39.73
2019-03-29T14:06:22.368Z,40.40
2019-03-29T14:08:51.149Z,34.65
2019-03-29T14:11:19.928Z,35.38
2019-03-29T14:13:48.732Z,34.45
2019-03-29T14:16:17.506Z,30.68
2019-03-29T14:18:46.308Z,31.55
2019-03-29T14:21:15.088Z,32.65
2019-03-29T14:23:44.161Z,32.23
2019-03-29T14:26:16.085Z,38.05
2019-03-29T14:28:43.360Z,33.42
2019-03-29T14:31:12.167Z,35.60
2019-03-29T14:33:40.892Z,36.05
2019-03-29T14:36:09.708Z,37.17
2019-03-29T14:38:38.482Z,39.63
2019-03-29T14:41:07.246Z,37.17
2019-03-29T14:43:36.048Z,40.25
2019-03-29T14:46:04.806Z,38.33
2019-03-29T14:48:33.646Z,47.17
2019-03-29T14:51:02.408Z,39.53
2019-03-29T14:53:31.247Z,38.75
2019-03-29T14:56:00.026Z,41.05
2019-03-29T14:58:28.765Z,37.88
2019-03-29T15:00:57.580Z,44.75
2019-03-29T15:03:26.326Z,34.80
2019-03-29T15:05:55.306Z,35.13
2019-03-29T15:08:24.086Z,31.97
2019-03-29T15:10:52.866Z,29.63
2019-03-29T15:13:21.667Z,26.50
2019-03-29T15:15:53.382Z,28.47
2019-03-29T15:18:20.946Z,26.57
2019-03-29T15:20:53.742Z,24.82
2019-03-29T15:23:20.229Z,27.00
2019-03-29T15:25:49.066Z,27.98
2019-03-29T15:28:17.809Z,27.50
2019-03-29T15:30:46.587Z,27.37
2019-03-29T15:33:15.406Z,28.12
2019-03-29T15:35:44.190Z,27.37
2019-03-29T15:38:12.971Z,28.95
2019-03-29T15:40:41.786Z,27.87
2019-03-29T15:43:10.577Z,28.15
2019-03-29T15:45:39.329Z,29.40
2019-03-29T15:48:08.167Z,28.42
2019-03-29T15:50:36.946Z,27.98
2019-03-29T15:53:05.727Z,25.70
2019-03-29T15:55:34.646Z,27.55
2019-03-29T15:58:03.427Z,29.75
2019-03-29T16:00:32.226Z,27.42
2019-03-29T16:03:01.067Z,29.18
2019-03-29T16:05:29.807Z,29.60
2019-03-29T16:07:58.586Z,28.62
2019-03-29T16:10:27.483Z,29.10
2019-03-29T16:12:56.455Z,31.80
2019-03-29T16:15:34.183Z,28.02
2019-03-29T16:17:58.526Z,28.80
2019-03-29T16:20:27.329Z,27.70
2019-03-29T16:22:56.127Z,30.17
2019-03-29T16:25:24.970Z,32.65
2019-03-29T16:27:53.782Z,32.30
2019-03-29T16:30:22.823Z,26.35
2019-03-29T16:32:51.766Z,30.75
2019-03-29T16:35:20.534Z,32.85
2019-03-29T16:37:57.072Z,33.80
2019-03-29T16:40:19.889Z,31.93
2019-03-29T16:42:48.647Z,27.27
2019-03-29T16:45:17.487Z,27.60
2019-03-29T16:47:46.214Z,29.85
2019-03-29T16:50:15.247Z,41.77
2019-03-29T16:52:44.128Z,56.95
2019-03-29T16:55:14.228Z,161.73
2019-03-29T16:57:43.424Z,79.27
2019-03-29T17:00:13.034Z,65.95
2019-03-29T17:02:41.949Z,154.05
2019-03-29T17:05:11.232Z,80.12
2019-03-29T17:07:40.279Z,214.93
2019-03-29T17:10:09.568Z,115.42
2019-03-29T17:12:38.486Z,68.87
2019-03-29T17:15:07.847Z,56.23
2019-03-29T17:17:36.750Z,48.65
2019-03-29T17:20:09.966Z,51.00
2019-03-29T17:22:38.889Z,53.38
2019-03-29T17:25:08.941Z,40.10
2019-03-29T17:27:37.889Z,34.75
2019-03-29T17:30:09.927Z,36.30
2019-03-29T17:32:38.688Z,39.98
2019-03-29T17:35:09.007Z,40.60
2019-03-29T17:37:37.886Z,36.80
2019-03-29T17:40:08.537Z,32.05
2019-03-29T17:42:37.608Z,34.50
2019-03-29T17:45:08.234Z,32.53
2019-03-29T17:47:37.168Z,32.85
2019-03-29T17:50:06.846Z,33.55
2019-03-29T17:52:35.657Z,35.78
2019-03-29T17:55:06.646Z,38.75
2019-03-29T17:57:35.448Z,39.03
2019-03-29T18:00:07.648Z,35.55
2019-03-29T18:02:36.608Z,38.25
2019-03-29T18:05:10.013Z,39.70
2019-03-29T18:07:38.887Z,239.40
2019-03-29T18:10:09.371Z,115.92
2019-03-29T18:12:38.289Z,76.35
2019-03-29T18:15:09.207Z,69.27
2019-03-29T18:17:38.086Z,48.78
2019-03-29T18:20:09.335Z,48.95
2019-03-29T18:22:38.367Z,44.08
2019-03-29T18:25:07.766Z,39.30
2019-03-29T18:27:36.637Z,39.15
2019-03-29T18:30:10.656Z,46.45
2019-03-29T18:32:39.647Z,48.33
2019-03-29T18:35:09.159Z,49.77
2019-03-29T18:37:38.246Z,52.30
2019-03-29T18:40:08.818Z,63.55
2019-03-29T18:42:37.727Z,68.00
2019-03-29T18:45:08.367Z,64.05
2019-03-29T18:47:37.360Z,47.60
2019-03-29T18:50:07.366Z,38.53
2019-03-29T18:52:38.608Z,42.65
2019-03-29T18:55:07.528Z,40.50
2019-03-29T18:57:36.328Z,43.70
2019-03-29T19:00:07.286Z,43.75
2019-03-29T19:02:36.208Z,40.80
2019-03-29T19:05:05.729Z,40.85
2019-03-29T19:07:34.728Z,40.63
2019-03-29T19:10:03.728Z,39.50
2019-03-29T19:12:32.451Z,39.67
2019-03-29T19:15:01.561Z,40.73
2019-03-29T19:17:30.446Z,39.38
2019-03-29T19:19:59.357Z,36.38
2019-03-29T19:22:32.448Z,41.73
2019-03-29T19:25:01.349Z,48.98
2019-03-29T19:27:30.144Z,83.47
2019-03-29T19:29:59.003Z,75.70
2019-03-29T19:32:27.824Z,47.20
2019-03-29T19:34:56.583Z,50.52
2019-03-29T19:37:25.444Z,60.28
2019-03-29T19:39:54.283Z,41.50
2019-03-29T19:42:23.144Z,52.23
2019-03-29T19:44:52.004Z,54.88
2019-03-29T19:47:20.824Z,65.22
2019-03-29T19:49:49.725Z,49.27
2019-03-29T19:52:18.566Z,45.40
2019-03-29T19:54:47.398Z,55.05
2019-03-29T19:57:16.268Z,48.15
2019-03-29T19:59:48.010Z,43.95
2019-03-29T20:02:15.684Z,42.67
2019-03-29T20:04:44.646Z,44.75
2019-03-29T20:07:13.744Z,42.73
2019-03-29T20:09:42.645Z,46.15
2019-03-29T20:12:11.566Z,40.45
2019-03-29T20:14:40.490Z,46.73
2019-03-29T20:17:09.524Z,45.85
2019-03-29T20:19:38.344Z,45.23
2019-03-29T20:22:07.163Z,44.63
2019-03-29T20:24:35.984Z,38.45
2019-03-29T20:27:04.845Z,38.20
2019-03-29T20:29:33.703Z,41.35
2019-03-29T20:32:02.567Z,41.13
2019-03-29T20:34:31.343Z,44.50
2019-03-29T20:37:00.203Z,52.98
2019-03-29T20:39:29.064Z,44.33
2019-03-29T20:41:57.846Z,45.75
2019-03-29T20:44:26.684Z,42.17
2019-03-29T20:46:55.563Z,43.63
2019-03-29T20:49:24.324Z,48.45
2019-03-29T20:51:53.143Z,47.67
2019-03-29T20:54:21.923Z,49.38
2019-03-29T20:56:50.666Z,44.10
2019-03-29T20:59:19.464Z,48.45
2019-03-29T21:01:48.243Z,50.98
2019-03-29T21:04:17.023Z,48.75
2019-03-29T21:06:45.843Z,41.60
2019-03-29T21:09:14.588Z,42.73
2019-03-29T21:11:43.344Z,41.50
2019-03-29T21:14:12.150Z,40.50
2019-03-29T21:16:40.930Z,41.42
2019-03-29T21:19:09.683Z,43.20
2019-03-29T21:21:38.524Z,42.53
2019-03-29T21:24:07.365Z,43.28
2019-03-29T21:26:36.143Z,43.60
2019-03-29T21:29:04.964Z,42.43
2019-03-29T21:31:33.704Z,44.95
2019-03-29T21:34:02.471Z,44.80
2019-03-29T21:36:31.273Z,46.83
2019-03-29T21:39:00.083Z,52.30
2019-03-29T21:41:28.844Z,50.20
2019-03-29T21:43:57.684Z,49.25
2019-03-29T21:46:26.443Z,61.40
2019-03-29T21:48:55.173Z,56.80
2019-03-29T21:51:24.012Z,48.80
2019-03-29T21:53:52.766Z,54.77
2019-03-29T21:56:21.524Z,52.78
2019-03-29T21:58:50.364Z,46.75
2019-03-29T22:01:19.145Z,48.28
2019-03-29T22:03:47.903Z,47.88
2019-03-29T22:06:16.724Z,44.77
2019-03-29T22:08:45.483Z,48.48
2019-03-29T22:11:14.243Z,46.77
2019-03-29T22:13:43.063Z,43.85
2019-03-29T22:16:11.823Z,43.68
2019-03-29T22:18:40.564Z,57.03
2019-03-29T22:21:09.383Z,57.38
2019-03-29T22:23:38.143Z,63.35
2019-03-29T22:26:06.903Z,58.20
2019-03-29T22:28:35.743Z,76.95
2019-03-29T22:31:04.523Z,69.05
2019-03-29T22:33:33.303Z,78.37
2019-03-29T22:36:02.126Z,65.92
2019-03-29T22:38:30.903Z,63.73
2019-03-29T22:40:59.663Z,62.43
2019-03-29T22:43:28.503Z,62.78
2019-03-29T22:45:57.243Z,69.55
2019-03-29T22:48:26.006Z,67.92
2019-03-29T22:50:54.803Z,78.75
2019-03-29T22:53:23.566Z,99.22
2019-03-29T22:55:52.323Z,84.13
2019-03-29T22:58:21.143Z,143.35
2019-03-29T23:00:55.523Z,109.70
2019-03-29T23:03:24.285Z,95.57
2019-03-29T23:05:53.123Z,102.53
2019-03-29T23:08:21.883Z,74.35
2019-03-29T23:10:50.664Z,66.62
2019-03-29T23:13:19.465Z,68.50
2019-03-29T23:15:48.227Z,64.30
2019-03-29T23:18:17.327Z,72.92
2019-03-29T23:20:46.147Z,65.57
2019-03-29T23:23:15.205Z,71.00
2019-03-29T23:25:44.199Z,71.40
2019-03-29T23:28:13.025Z,61.05
2019-03-29T23:30:41.779Z,66.02
2019-03-29T23:33:10.580Z,88.07
2019-03-29T23:35:39.390Z,83.60
2019-03-29T23:38:08.151Z,80.25
2019-03-29T23:40:36.885Z,86.80
2019-03-29T23:43:05.686Z,87.02
2019-03-29T23:45:34.445Z,74.95
2019-03-29T23:48:03.185Z,94.45
2019-03-29T23:50:32.005Z,103.12
2019-03-29T23:53:00.765Z,113.72
2019-03-29T23:55:29.505Z,99.67
2019-03-29T23:57:58.542Z,103.80
